Time;durP1;ratioP1;P1;durP2;ratioP2;P2;SDS_P1;SDS_P2;PMS_P1;PMS_P2;Temp;Humidity;BMP_temperature;BMP_pressure;BME280_temperature;BME280_humidity;BME280_pressure;Samples;Min_cycle;Max_cycle;Signal;HPM_P1;HPM_P2
2024/01/07 00:05:42;;;;;;;35.33;33.63;;;10.20;90.00;;;;;;12703527;28;20027;-74
2024/01/07 00:11:44;;;;;;;53.50;51.03;;;10.20;89.90;;;;;;12669034;28;20069;-74
2024/01/07 00:17:45;;;;;;;42.55;40.60;;;10.20;89.90;;;;;;12703524;28;20057;-74
2024/01/07 00:23:47;;;;;;;37.40;35.70;;;10.20;89.90;;;;;;12684706;28;20061;-74
2024/01/07 00:29:48;;;;;;;35.05;33.45;;;10.00;89.80;;;;;;12703036;28;20163;-74
2024/01/07 00:35:51;;;;;;;16.45;15.52;;;10.00;89.90;;;;;;12689281;28;20042;-74
2024/01/07 00:41:55;;;;;;;20.30;19.35;;;9.90;89.90;;;;;;12693691;28;20038;-74
2024/01/07 00:47:59;;;;;;;25.40;24.25;;;9.90;90.00;;;;;;12712337;28;20028;-74
2024/01/07 00:54:02;;;;;;;15.48;14.68;;;9.90;90.00;;;;;;12693200;28;20032;-74
2024/01/07 01:00:08;;;;;;;26.73;25.55;;;9.90;90.00;;;;;;12711023;28;20419;-74
2024/01/07 01:06:10;;;;;;;14.65;13.85;;;10.00;90.00;;;;;;12692731;28;20039;-74
2024/01/07 01:12:11;;;;;;;20.40;19.30;;;10.00;90.00;;;;;;12710564;28;20031;-74
2024/01/07 01:18:13;;;;;;;21.83;20.73;;;10.00;90.00;;;;;;12692131;28;20065;-74
2024/01/07 01:24:15;;;;;;;24.67;23.52;;;10.10;89.90;;;;;;12675360;28;20047;-74
2024/01/07 01:30:18;;;;;;;31.27;29.88;;;10.10;89.90;;;;;;12692314;28;20028;-74
2024/01/07 01:36:19;;;;;;;28.00;26.67;;;10.00;89.90;;;;;;12709335;28;20027;-74
2024/01/07 01:42:21;;;;;;;64.53;62.05;;;10.00;89.90;;;;;;12690846;28;20463;-74
2024/01/07 01:48:23;;;;;;;28.40;26.92;;;10.00;89.90;;;;;;12707990;28;20047;-74
2024/01/07 01:54:25;;;;;;;26.02;24.80;;;10.10;89.90;;;;;;12708408;28;20077;-74
2024/01/07 02:00:27;;;;;;;22.77;21.60;;;9.90;89.80;;;;;;12673232;28;20042;-74
2024/01/07 02:06:29;;;;;;;25.02;23.90;;;9.90;89.80;;;;;;12672768;28;20038;-74
2024/01/07 02:12:30;;;;;;;31.42;30.10;;;9.90;89.90;;;;;;12707571;28;20034;-74
2024/01/07 02:18:32;;;;;;;20.95;19.83;;;9.90;89.80;;;;;;12689172;28;20032;-74
2024/01/07 02:24:34;;;;;;;26.45;25.08;;;9.90;89.90;;;;;;12688728;28;20035;-74
2024/01/07 02:30:38;;;;;;;27.45;26.20;;;9.90;89.80;;;;;;12706716;28;20440;-73
2024/01/07 02:37:02;;;;;;;28.33;26.92;;;10.00;89.80;;;;;;12687456;28;20028;-73
2024/01/07 02:43:04;;;;;;;15.43;14.52;;;10.00;89.70;;;;;;12671593;28;20055;-73
2024/01/07 02:49:06;;;;;;;33.95;32.47;;;9.90;89.80;;;;;;12705793;28;20027;-74
2024/01/07 02:55:08;;;;;;;34.40;32.85;;;9.90;89.70;;;;;;12688188;28;20028;-74
2024/01/07 03:01:10;;;;;;;43.72;41.92;;;9.90;89.80;;;;;;12705110;28;20031;-74
2024/01/07 03:07:11;;;;;;;58.08;55.90;;;9.90;89.80;;;;;;12705106;28;20302;-74
2024/01/07 03:13:13;;;;;;;10.20;9.40;;;9.90;89.80;;;;;;12704957;28;20032;-74
2024/01/07 03:19:14;;;;;;;25.80;24.52;;;9.90;89.80;;;;;;12704829;28;20031;-74
2024/01/07 03:25:16;;;;;;;32.72;31.35;;;10.00;89.80;;;;;;12704375;28;20035;-74
2024/01/07 03:31:19;;;;;;;82.78;79.60;;;9.90;89.70;;;;;;12687022;28;20036;-74
2024/01/07 03:37:20;;;;;;;42.33;40.45;;;9.90;89.70;;;;;;12704281;28;20039;-74
2024/01/07 03:43:22;;;;;;;15.35;14.63;;;9.80;89.60;;;;;;12704025;28;20024;-73
2024/01/07 03:49:23;;;;;;;17.80;17.00;;;9.80;89.60;;;;;;12704055;28;20027;-73
2024/01/07 03:55:25;;;;;;;15.43;14.77;;;9.70;89.60;;;;;;12685904;28;20040;-74
2024/01/07 04:01:27;;;;;;;25.35;24.35;;;9.70;89.70;;;;;;12703570;28;20028;-74
2024/01/07 04:07:28;;;;;;;17.50;16.80;;;9.70;89.70;;;;;;12685482;28;20023;-76
2024/01/07 04:13:30;;;;;;;12.13;11.65;;;9.70;89.40;;;;;;12694558;28;20329;-76
2024/01/07 04:19:31;;;;;;;9.95;9.43;;;9.60;89.50;;;;;;12713105;28;20031;-76
2024/01/07 04:25:33;;;;;;;18.90;18.20;;;9.70;89.60;;;;;;12712746;28;20036;-76
2024/01/07 04:31:34;;;;;;;14.43;13.88;;;9.60;89.50;;;;;;12712454;28;20054;-76
2024/01/07 04:37:37;;;;;;;11.75;11.02;;;9.60;89.50;;;;;;12712240;28;20041;-76
2024/01/07 04:43:40;;;;;;;10.07;9.63;;;9.60;89.60;;;;;;12712577;28;20031;-75
2024/01/07 04:49:41;;;;;;;8.27;7.88;;;9.60;89.20;;;;;;12677023;28;20036;-76
2024/01/07 04:55:43;;;;;;;4.60;4.40;;;9.40;89.10;;;;;;12712099;28;20028;-76
2024/01/07 05:01:44;;;;;;;6.45;6.22;;;9.40;89.20;;;;;;12711015;28;20038;-75
2024/01/07 05:07:46;;;;;;;9.15;8.50;;;9.40;89.40;;;;;;12711641;28;20032;-75
2024/01/07 05:13:48;;;;;;;6.10;5.88;;;9.40;89.50;;;;;;12711263;28;20024;-76
2024/01/07 05:19:49;;;;;;;1.40;1.30;;;9.40;89.40;;;;;;12709277;28;20028;-76
2024/01/07 05:25:51;;;;;;;7.43;7.05;;;9.40;89.50;;;;;;12710370;28;20336;-76
2024/01/07 05:31:52;;;;;;;6.88;6.47;;;9.30;89.40;;;;;;12709637;28;20036;-76
2024/01/07 05:37:54;;;;;;;7.07;6.68;;;9.30;89.50;;;;;;12709352;28;20032;-75
2024/01/07 05:43:55;;;;;;;1.85;1.75;;;9.40;89.40;;;;;;12709140;28;20042;-76
2024/01/07 05:49:57;;;;;;;7.15;6.75;;;9.30;89.50;;;;;;12708787;28;20344;-76
2024/01/07 05:56:00;;;;;;;5.30;5.00;;;9.30;89.60;;;;;;12708337;28;20032;-76
2024/01/07 06:02:01;;;;;;;4.03;3.72;;;9.30;89.50;;;;;;12690039;28;20221;-76
2024/01/07 06:08:04;;;;;;;9.57;8.93;;;9.30;89.60;;;;;;12707789;28;20035;-75
2024/01/07 06:14:06;;;;;;;8.18;7.53;;;9.30;89.70;;;;;;12689392;28;20062;-75
2024/01/07 06:20:08;;;;;;;6.15;5.60;;;9.20;89.70;;;;;;12707148;28;20034;-75
2024/01/07 06:26:09;;;;;;;2.90;1.77;;;9.30;89.80;;;;;;12688789;28;20032;-76
2024/01/07 06:32:11;;;;;;;4.82;4.55;;;9.30;89.90;;;;;;12706359;28;20383;-75
2024/01/07 06:38:12;;;;;;;7.45;6.90;;;9.30;90.00;;;;;;12688344;28;20038;-75
2024/01/07 06:44:14;;;;;;;6.00;5.47;;;9.30;89.80;;;;;;12670742;28;20050;-74
2024/01/07 06:50:16;;;;;;;5.18;4.88;;;9.30;90.00;;;;;;12705927;28;20031;-74
2024/01/07 06:56:18;;;;;;;8.57;8.13;;;9.30;89.80;;;;;;12702658;22;20365;-74
2024/01/07 07:02:21;;;;;;;17.08;16.45;;;9.20;89.80;;;;;;12586771;28;20052;-74
2024/01/07 07:08:23;;;;;;;1.52;1.40;;;9.20;89.90;;;;;;12604462;28;20029;-75
2024/01/07 07:14:24;;;;;;;4.28;3.28;;;9.30;90.00;;;;;;12604246;28;20032;-75
2024/01/07 07:20:26;;;;;;;1.50;1.23;;;9.30;90.00;;;;;;12586176;28;20429;-74
2024/01/07 07:26:27;;;;;;;1.98;1.00;;;9.30;89.90;;;;;;12603771;28;20032;-75
2024/01/07 07:32:29;;;;;;;8.02;7.75;;;9.30;89.90;;;;;;12603719;28;20028;-74
2024/01/07 07:38:31;;;;;;;8.82;8.48;;;9.40;90.00;;;;;;12585768;28;20044;-74
2024/01/07 07:44:32;;;;;;;9.60;9.10;;;9.40;90.00;;;;;;12588431;28;20048;-74
2024/01/07 07:50:34;;;;;;;24.63;23.42;;;9.50;90.00;;;;;;12613543;28;20344;-74
2024/01/07 07:56:35;;;;;;;23.48;22.42;;;9.50;89.90;;;;;;12613149;28;20040;-74
2024/01/07 08:02:37;;;;;;;17.92;17.08;;;9.50;89.90;;;;;;12565983;28;20060;-74
2024/01/07 08:08:39;;;;;;;2.50;2.20;;;9.50;89.70;;;;;;12545248;28;20036;-74
2024/01/07 08:14:41;;;;;;;13.95;13.27;;;9.40;89.70;;;;;;12563528;28;20035;-74
2024/01/07 08:20:43;;;;;;;6.55;6.15;;;9.30;89.80;;;;;;12562460;28;20319;-74
2024/01/07 08:26:44;;;;;;;11.23;10.65;;;9.30;89.70;;;;;;12544257;28;20037;-74
2024/01/07 08:32:46;;;;;;;7.18;6.78;;;9.20;89.70;;;;;;12561870;28;20037;-75
2024/01/07 08:38:47;;;;;;;6.25;2.92;;;9.20;89.70;;;;;;12561602;28;20044;-75
2024/01/07 08:44:49;;;;;;;7.82;7.22;;;9.20;89.70;;;;;;12561334;28;20028;-75
2024/01/07 08:50:52;;;;;;;10.57;10.00;;;9.20;89.80;;;;;;12561088;28;20033;-74
2024/01/07 08:56:57;;;;;;;5.93;3.30;;;9.30;89.70;;;;;;12526763;28;20464;-74
2024/01/07 09:02:58;;;;;;;6.50;6.10;;;9.30;89.60;;;;;;12560479;28;20040;-74
2024/01/07 09:09:01;;;;;;;15.55;14.60;;;9.30;89.60;;;;;;12560213;28;20021;-74
2024/01/07 09:15:04;;;;;;;4.68;3.13;;;9.30;89.60;;;;;;12559917;28;20044;-74
2024/01/07 09:21:06;;;;;;;12.05;11.40;;;9.30;89.70;;;;;;12559594;28;20033;-74
2024/01/07 09:27:08;;;;;;;9.75;9.05;;;9.30;89.70;;;;;;12541709;28;20056;-74
2024/01/07 09:33:10;;;;;;;8.85;8.25;;;9.30;89.60;;;;;;12559140;28;20039;-74
2024/01/07 09:39:12;;;;;;;13.30;12.60;;;9.40;89.60;;;;;;12558047;28;20045;-74
2024/01/07 09:45:14;;;;;;;17.58;16.58;;;9.40;89.60;;;;;;12558472;28;20037;-74
2024/01/07 09:51:20;;;;;;;11.43;10.60;;;9.40;89.60;;;;;;12523833;28;20052;-74
2024/01/07 09:57:22;;;;;;;21.35;19.88;;;9.50;89.60;;;;;;12540062;28;20044;-74
2024/01/07 10:03:24;;;;;;;26.80;21.35;;;9.50;89.50;;;;;;12557781;28;20524;-74
2024/01/07 10:09:32;;;;;;;29.38;27.60;;;9.50;89.40;;;;;;12539105;28;20033;-74
2024/01/07 10:15:34;;;;;;;22.53;21.23;;;9.60;89.50;;;;;;12557140;28;20037;-74
2024/01/07 10:22:45;;;;;;;23.33;21.85;;;9.50;89.40;;;;;;12556742;28;20434;-74
2024/01/07 10:28:48;;;;;;;29.52;28.00;;;9.60;89.50;;;;;;12349023;28;20358;-74
2024/01/07 10:34:54;;;;;;;22.38;21.23;;;9.70;89.60;;;;;;12348665;28;20082;-74
2024/01/07 10:41:15;;;;;;;22.27;21.08;;;9.70;89.40;;;;;;12348577;28;20058;-74
2024/01/07 10:47:20;;;;;;;47.75;45.53;;;9.70;89.40;;;;;;12374842;28;20407;-74
2024/01/07 10:53:23;;;;;;;48.20;45.72;;;9.70;89.50;;;;;;12371093;28;20046;-74
2024/01/07 10:59:27;;;;;;;39.90;37.55;;;9.80;89.50;;;;;;12429263;28;20041;-74
2024/01/07 11:05:54;;;;;;;44.03;41.33;;;9.90;89.50;;;;;;12556101;28;20056;-74
2024/01/07 11:11:58;;;;;;;30.13;28.52;;;10.00;89.40;;;;;;12604999;28;20341;-73
2024/01/07 11:18:01;;;;;;;58.33;55.80;;;10.00;89.40;;;;;;12585178;28;20045;-74
2024/01/07 11:24:04;;;;;;;43.20;40.70;;;10.00;89.40;;;;;;12586771;28;20033;-74
2024/01/07 11:30:19;;;;;;;60.92;58.25;;;10.10;89.40;;;;;;12604532;28;20032;-74
2024/01/07 11:36:26;;;;;;;136.75;131.77;;;10.10;89.40;;;;;;12586511;28;20039;-73
2024/01/07 11:42:27;;;;;;;117.90;113.35;;;10.20;89.40;;;;;;12604080;28;20033;-74
2024/01/07 11:48:29;;;;;;;78.65;75.28;;;10.20;89.40;;;;;;12603156;28;20035;-74
2024/01/07 11:54:32;;;;;;;60.20;57.58;;;10.20;89.40;;;;;;12585881;28;20032;-74
2024/01/07 12:00:53;;;;;;;101.10;97.30;;;10.20;89.30;;;;;;12603871;28;20349;-74
2024/01/07 12:06:55;;;;;;;148.32;142.95;;;10.20;89.40;;;;;;12603229;28;20357;-74
2024/01/07 12:13:00;;;;;;;168.60;162.48;;;10.20;89.40;;;;;;12603289;28;20044;-74
2024/01/07 12:19:01;;;;;;;159.20;153.45;;;10.20;89.40;;;;;;12603445;28;20039;-74
2024/01/07 12:25:05;;;;;;;164.00;157.77;;;10.20;89.40;;;;;;12603164;28;20036;-73
2024/01/07 12:31:08;;;;;;;50.00;47.53;;;10.20;89.40;;;;;;12606530;28;20039;-74
2024/01/07 12:37:13;;;;;;;70.53;66.95;;;10.20;89.40;;;;;;12594386;28;20055;-74
2024/01/07 12:43:15;;;;;;;83.45;79.65;;;10.20;89.50;;;;;;12593943;28;20035;-74
2024/01/07 12:49:18;;;;;;;145.55;139.85;;;10.20;89.30;;;;;;12593316;28;20044;-74
2024/01/07 12:55:20;;;;;;;148.27;142.77;;;10.20;89.30;;;;;;12593438;28;20039;-77
2024/01/07 13:01:22;;;;;;;181.82;175.00;;;10.30;89.40;;;;;;12611002;28;20036;-76
2024/01/07 13:07:23;;;;;;;169.60;163.27;;;10.30;89.40;;;;;;12593313;28;20036;-76
2024/01/07 13:13:25;;;;;;;198.18;190.70;;;10.40;89.30;;;;;;12610597;28;20043;-77
2024/01/07 13:19:30;;;;;;;114.07;109.55;;;10.40;89.30;;;;;;12610330;28;20028;-76
2024/01/07 13:25:32;;;;;;;53.72;50.97;;;10.40;89.30;;;;;;12610001;28;20029;-74
2024/01/07 13:31:33;;;;;;;47.85;45.75;;;10.40;89.20;;;;;;12609583;28;20028;-74
2024/01/07 13:37:35;;;;;;;62.50;59.30;;;10.40;89.30;;;;;;12591358;28;20044;-74
2024/01/07 13:43:38;;;;;;;70.65;67.63;;;10.40;89.20;;;;;;12607832;28;20032;-74
2024/01/07 13:49:40;;;;;;;42.65;40.47;;;10.30;89.30;;;;;;12608501;28;20028;-74
2024/01/07 13:55:42;;;;;;;45.72;43.45;;;10.30;89.30;;;;;;12607822;28;20028;-74
2024/01/07 14:01:51;;;;;;;56.95;54.35;;;10.40;89.30;;;;;;12607307;28;20044;-74
2024/01/07 14:07:56;;;;;;;73.95;70.72;;;10.40;89.30;;;;;;12607086;28;20032;-74
2024/01/07 14:14:00;;;;;;;189.20;182.23;;;10.30;89.30;;;;;;12606732;28;20047;-76
2024/01/07 14:20:04;;;;;;;62.38;59.58;;;10.30;89.30;;;;;;12606527;28;20029;-76
2024/01/07 14:26:14;;;;;;;159.20;153.30;;;10.30;89.40;;;;;;12606152;28;20065;-76
2024/01/07 14:32:16;;;;;;;173.45;167.05;;;10.30;89.30;;;;;;12606016;28;20433;-76
2024/01/07 14:38:27;;;;;;;82.53;79.18;;;10.30;89.30;;;;;;12605586;28;20106;-76
2024/01/07 14:44:30;;;;;;;164.30;158.15;;;10.20;89.30;;;;;;12605250;28;20039;-76
2024/01/07 14:50:32;;;;;;;43.80;41.67;;;10.20;89.30;;;;;;12605140;28;20035;-75
2024/01/07 14:56:36;;;;;;;47.10;44.65;;;10.30;89.30;;;;;;12617375;22;20040;-75
2024/01/07 15:02:44;;;;;;;55.47;52.88;;;10.30;89.30;;;;;;12653268;28;20336;-75
2024/01/07 15:08:51;;;;;;;147.18;141.63;;;10.30;89.30;;;;;;12599503;28;20047;-76
2024/01/07 15:14:53;;;;;;;62.25;59.35;;;10.20;89.30;;;;;;12581532;28;20074;-76
2024/01/07 15:20:55;;;;;;;144.68;138.82;;;10.30;89.40;;;;;;12582472;28;20046;-76
2024/01/07 15:26:57;;;;;;;85.00;81.25;;;10.20;89.30;;;;;;12598952;28;20068;-76
2024/01/07 15:32:59;;;;;;;130.57;125.15;;;10.20;89.40;;;;;;12599697;28;20353;-76
2024/01/07 15:39:00;;;;;;;88.45;84.43;;;10.20;89.40;;;;;;12619025;28;20051;-75
2024/01/07 15:45:03;;;;;;;112.18;106.90;;;10.20;89.40;;;;;;12653881;28;20032;-76
2024/01/07 15:51:06;;;;;;;88.13;83.78;;;10.20;89.40;;;;;;12651546;28;20040;-74
2024/01/07 15:57:07;;;;;;;185.15;177.18;;;10.20;89.40;;;;;;12652861;28;20451;-74
2024/01/07 16:03:11;;;;;;;88.10;83.82;;;10.20;89.50;;;;;;12653175;28;20383;-74
2024/01/07 16:09:13;;;;;;;31.50;29.13;;;10.20;89.50;;;;;;12643924;28;20448;-74
2024/01/07 16:15:15;;;;;;;82.25;78.20;;;10.20;89.50;;;;;;12662947;28;20032;-74
2024/01/07 16:21:20;;;;;;;37.22;34.88;;;10.10;89.50;;;;;;12661595;28;20039;-74
2024/01/07 16:27:22;;;;;;;72.82;69.18;;;10.20;89.50;;;;;;12662234;28;20027;-74
2024/01/07 16:33:23;;;;;;;54.38;51.40;;;10.20;89.50;;;;;;12662209;28;20040;-74
2024/01/07 16:39:26;;;;;;;63.28;58.85;;;10.20;89.50;;;;;;12660535;28;20040;-74
2024/01/07 16:45:27;;;;;;;119.85;114.03;;;10.20;89.50;;;;;;12661481;28;20036;-74
2024/01/07 16:51:29;;;;;;;138.50;132.63;;;10.10;89.50;;;;;;12661286;28;20027;-73
2024/01/07 16:57:30;;;;;;;40.42;37.92;;;10.10;89.50;;;;;;12660880;28;20032;-74
2024/01/07 17:03:32;;;;;;;138.25;132.60;;;10.10;89.60;;;;;;12660625;28;20357;-74
2024/01/07 17:09:35;;;;;;;36.05;34.05;;;10.10;89.60;;;;;;12642348;28;20028;-74
2024/01/07 17:15:39;;;;;;;65.57;62.03;;;10.10;89.50;;;;;;12660119;28;20043;-74
2024/01/07 17:21:40;;;;;;;44.75;42.05;;;10.10;89.50;;;;;;12659911;28;20024;-74
2024/01/07 17:27:42;;;;;;;25.70;23.70;;;10.10;89.50;;;;;;12659513;28;20467;-74
2024/01/07 17:33:44;;;;;;;91.07;86.85;;;10.00;89.50;;;;;;12659212;28;20322;-74
2024/01/07 17:39:53;;;;;;;53.25;49.58;;;10.00;89.50;;;;;;12657800;28;20047;-74
2024/01/07 17:45:55;;;;;;;81.35;76.88;;;10.00;89.50;;;;;;12657416;28;20433;-74
2024/01/07 17:51:57;;;;;;;36.50;33.50;;;10.00;89.50;;;;;;12658375;28;20032;-74
2024/01/07 17:57:58;;;;;;;45.72;42.60;;;10.00;89.50;;;;;;12657825;28;20036;-74
2024/01/07 18:04:00;;;;;;;82.95;78.85;;;10.00;89.60;;;;;;12657633;28;20032;-74
2024/01/07 18:10:02;;;;;;;55.35;52.10;;;10.00;89.50;;;;;;12657565;28;20035;-74
2024/01/07 18:16:05;;;;;;;43.83;40.70;;;10.00;89.50;;;;;;12656123;28;20035;-73
2024/01/07 18:22:07;;;;;;;48.25;45.17;;;10.00;89.50;;;;;;12656964;28;20024;-73
2024/01/07 18:28:10;;;;;;;42.30;39.45;;;10.00;89.50;;;;;;12656133;28;20035;-74
2024/01/07 18:34:38;;;;;;;47.58;44.78;;;9.90;89.60;;;;;;12656276;28;20023;-74
2024/01/07 18:40:51;;;;;;;58.53;55.17;;;9.90;89.60;;;;;;12656054;28;20432;-74
2024/01/07 18:54:24;;;;;;;48.95;45.85;;;10.00;89.50;;;;;;12656194;28;20027;-74
2024/01/07 19:00:27;;;;;;;44.40;41.58;;;9.90;89.50;;;;;;12655155;28;20036;-74
2024/01/07 19:06:30;;;;;;;57.03;53.40;;;9.90;89.60;;;;;;12654902;28;20032;-74
2024/01/07 19:12:31;;;;;;;35.97;33.28;;;9.90;89.60;;;;;;12654646;28;20032;-74
2024/01/07 19:18:34;;;;;;;45.95;42.33;;;9.90;89.60;;;;;;12653354;28;20445;-74
2024/01/07 19:24:38;;;;;;;36.75;33.95;;;9.90;89.60;;;;;;12654177;28;20032;-74
2024/01/07 19:30:40;;;;;;;34.47;31.95;;;9.90;89.60;;;;;;12654112;28;20419;-74
2024/01/07 19:36:42;;;;;;;43.30;39.65;;;9.90;89.50;;;;;;12653207;28;20348;-74
2024/01/07 19:42:43;;;;;;;36.97;34.17;;;9.80;89.60;;;;;;12652857;28;20495;-73
2024/01/07 19:48:45;;;;;;;29.23;26.77;;;9.80;89.60;;;;;;12653553;28;20032;-73
2024/01/07 19:54:46;;;;;;;71.15;66.82;;;9.70;89.60;;;;;;12653585;28;20040;-73
2024/01/07 20:00:50;;;;;;;44.78;41.83;;;9.80;89.70;;;;;;12653303;28;20032;-74
2024/01/07 20:06:54;;;;;;;36.63;33.92;;;9.80;89.70;;;;;;12652112;28;20090;-75
2024/01/07 20:12:58;;;;;;;49.75;46.30;;;9.80;89.70;;;;;;12652025;28;20036;-75
2024/01/07 20:19:00;;;;;;;48.90;45.67;;;9.80;89.60;;;;;;12652840;28;20028;-75
2024/01/07 20:25:02;;;;;;;47.95;44.70;;;9.80;89.60;;;;;;12652730;28;20036;-75
2024/01/07 20:31:03;;;;;;;32.05;29.50;;;9.80;89.60;;;;;;12652692;28;20028;-75
2024/01/07 20:37:06;;;;;;;45.45;42.35;;;9.70;89.60;;;;;;12651579;28;20040;-75
2024/01/07 20:43:09;;;;;;;86.32;81.47;;;9.80;89.70;;;;;;12652436;28;20475;-75
2024/01/07 20:49:13;;;;;;;39.53;36.58;;;9.80;89.70;;;;;;12652260;28;20039;-75
2024/01/07 20:55:15;;;;;;;34.03;31.42;;;9.80;89.60;;;;;;12660024;28;20040;-75
2024/01/07 21:01:29;;;;;;;47.45;43.38;;;9.80;89.60;;;;;;12660769;28;20032;-75
2024/01/07 21:07:31;;;;;;;37.35;34.08;;;9.70;89.00;;;;;;12660431;28;20028;-75
2024/01/07 21:13:33;;;;;;;45.33;41.90;;;9.60;89.20;;;;;;12660936;28;20074;-75
2024/01/07 21:19:35;;;;;;;42.25;39.15;;;9.60;89.40;;;;;;12659983;28;20032;-75
2024/01/07 21:25:36;;;;;;;43.38;40.25;;;9.60;89.40;;;;;;12659665;28;20441;-75
2024/01/07 21:31:39;;;;;;;31.95;29.30;;;9.60;89.40;;;;;;12659406;28;20039;-75
2024/01/07 21:37:41;;;;;;;45.17;42.13;;;9.70;89.40;;;;;;12659047;28;20032;-75
2024/01/07 21:43:43;;;;;;;43.08;40.15;;;9.60;89.40;;;;;;12658791;28;20034;-75
2024/01/07 21:49:46;;;;;;;41.85;39.15;;;9.60;89.50;;;;;;12658784;28;20225;-75
2024/01/07 21:55:48;;;;;;;54.55;51.25;;;9.70;89.40;;;;;;12658032;28;20043;-74
2024/01/07 22:01:50;;;;;;;27.90;25.60;;;9.70;89.40;;;;;;12657237;28;20478;-75
2024/01/07 22:07:52;;;;;;;44.70;41.65;;;9.70;89.40;;;;;;12656315;28;20032;-75
2024/01/07 22:13:54;;;;;;;38.42;35.55;;;9.70;89.40;;;;;;12656460;28;20064;-75
2024/01/07 22:19:56;;;;;;;32.38;30.20;;;9.70;89.40;;;;;;12657037;28;20032;-75
2024/01/07 22:25:59;;;;;;;28.08;25.63;;;9.70;89.40;;;;;;12657548;28;20276;-75
2024/01/07 22:32:02;;;;;;;37.28;34.45;;;9.60;89.40;;;;;;12656462;28;20032;-75
2024/01/07 22:38:04;;;;;;;30.38;28.13;;;9.60;89.50;;;;;;12656209;28;20028;-75
2024/01/07 22:44:07;;;;;;;39.15;36.38;;;9.60;89.50;;;;;;12656781;28;20507;-75
2024/01/07 22:50:09;;;;;;;30.30;27.77;;;9.60;89.50;;;;;;12655688;28;20032;-75
2024/01/07 22:56:12;;;;;;;29.05;26.73;;;9.60;89.40;;;;;;12658058;22;20047;-75
2024/01/07 23:02:14;;;;;;;26.52;24.10;;;9.60;89.40;;;;;;12586656;28;20041;-75
2024/01/07 23:08:17;;;;;;;39.55;36.80;;;9.60;89.50;;;;;;12586705;28;20043;-75
2024/01/07 23:14:18;;;;;;;39.38;36.53;;;9.60;89.50;;;;;;12604271;28;20037;-75
2024/01/07 23:20:23;;;;;;;28.77;26.45;;;9.60;89.50;;;;;;12588898;28;20135;-75
2024/01/07 23:26:25;;;;;;;37.78;34.85;;;9.60;89.50;;;;;;12585885;28;20039;-75
2024/01/07 23:32:26;;;;;;;28.85;26.50;;;9.60;89.50;;;;;;12603933;28;20043;-75
2024/01/07 23:38:28;;;;;;;38.17;35.55;;;9.60;89.50;;;;;;12586524;28;20361;-75
2024/01/07 23:44:30;;;;;;;38.28;35.60;;;9.60;89.50;;;;;;12585715;28;20039;-75
2024/01/07 23:50:32;;;;;;;39.08;36.58;;;9.60;89.50;;;;;;12603430;28;20073;-75
2024/01/07 23:56:42;;;;;;;26.02;23.83;;;9.60;89.40;;;;;;12603190;28;20043;-75
